sensor_id;sensor_type;location;lat;lon;timestamp;P1;durP1;ratioP1;P2;durP2;ratioP2
12356;SDS011;6243;51.244;6.774;2023-07-13T00:01:41;4.93;;;1.60;;
12356;SDS011;6243;51.244;6.774;2023-07-13T00:04:07;2.67;;;1.57;;
12356;SDS011;6243;51.244;6.774;2023-07-13T00:06:32;3.63;;;1.60;;
12356;SDS011;6243;51.244;6.774;2023-07-13T00:08:58;2.93;;;1.40;;
12356;SDS011;6243;51.244;6.774;2023-07-13T00:11:25;3.47;;;1.93;;
12356;SDS011;6243;51.244;6.774;2023-07-13T00:13:51;3.00;;;1.77;;
12356;SDS011;6243;51.244;6.774;2023-07-13T00:16:16;3.90;;;1.80;;
12356;SDS011;6243;51.244;6.774;2023-07-13T00:18:42;5.00;;;1.63;;
12356;SDS011;6243;51.244;6.774;2023-07-13T00:21:07;1.70;;;1.00;;
12356;SDS011;6243;51.244;6.774;2023-07-13T00:23:33;3.97;;;1.80;;
12356;SDS011;6243;51.244;6.774;2023-07-13T00:26:00;4.30;;;1.93;;
12356;SDS011;6243;51.244;6.774;2023-07-13T00:28:27;2.97;;;1.57;;
12356;SDS011;6243;51.244;6.774;2023-07-13T00:30:53;2.73;;;1.73;;
12356;SDS011;6243;51.244;6.774;2023-07-13T00:33:18;5.83;;;2.10;;
12356;SDS011;6243;51.244;6.774;2023-07-13T00:35:44;6.23;;;1.67;;
12356;SDS011;6243;51.244;6.774;2023-07-13T00:38:09;5.07;;;2.10;;
12356;SDS011;6243;51.244;6.774;2023-07-13T00:40:35;3.73;;;1.97;;
12356;SDS011;6243;51.244;6.774;2023-07-13T00:43:01;5.60;;;1.77;;
12356;SDS011;6243;51.244;6.774;2023-07-13T00:48:31;6.37;;;1.90;;
12356;SDS011;6243;51.244;6.774;2023-07-13T00:50:59;4.33;;;1.70;;
12356;SDS011;6243;51.244;6.774;2023-07-13T00:53:27;5.03;;;1.90;;
12356;SDS011;6243;51.244;6.774;2023-07-13T00:55:54;3.47;;;1.70;;
12356;SDS011;6243;51.244;6.774;2023-07-13T00:58:21;3.93;;;1.70;;
12356;SDS011;6243;51.244;6.774;2023-07-13T01:00:47;4.10;;;1.57;;
12356;SDS011;6243;51.244;6.774;2023-07-13T01:03:14;3.93;;;1.60;;
12356;SDS011;6243;51.244;6.774;2023-07-13T01:05:41;3.60;;;1.60;;
12356;SDS011;6243;51.244;6.774;2023-07-13T01:08:06;3.77;;;1.87;;
12356;SDS011;6243;51.244;6.774;2023-07-13T01:10:32;5.47;;;1.50;;
12356;SDS011;6243;51.244;6.774;2023-07-13T01:12:58;6.10;;;1.70;;
12356;SDS011;6243;51.244;6.774;2023-07-13T01:15:37;2.80;;;1.47;;
12356;SDS011;6243;51.244;6.774;2023-07-13T01:18:05;4.87;;;1.90;;
12356;SDS011;6243;51.244;6.774;2023-07-13T01:20:35;7.93;;;1.93;;
12356;SDS011;6243;51.244;6.774;2023-07-13T01:23:02;3.90;;;1.67;;
12356;SDS011;6243;51.244;6.774;2023-07-13T01:25:29;4.07;;;1.63;;
12356;SDS011;6243;51.244;6.774;2023-07-13T01:27:54;6.27;;;1.77;;
12356;SDS011;6243;51.244;6.774;2023-07-13T01:30:20;7.17;;;1.97;;
12356;SDS011;6243;51.244;6.774;2023-07-13T01:32:45;6.03;;;2.20;;
12356;SDS011;6243;51.244;6.774;2023-07-13T01:35:11;4.07;;;1.73;;
12356;SDS011;6243;51.244;6.774;2023-07-13T01:37:36;5.23;;;2.00;;
12356;SDS011;6243;51.244;6.774;2023-07-13T01:40:04;3.57;;;1.63;;
12356;SDS011;6243;51.244;6.774;2023-07-13T01:42:30;4.10;;;1.77;;
12356;SDS011;6243;51.244;6.774;2023-07-13T01:44:56;5.70;;;1.80;;
12356;SDS011;6243;51.244;6.774;2023-07-13T01:47:21;5.77;;;2.03;;
12356;SDS011;6243;51.244;6.774;2023-07-13T01:49:47;7.60;;;1.80;;
12356;SDS011;6243;51.244;6.774;2023-07-13T01:52:13;5.67;;;2.00;;
12356;SDS011;6243;51.244;6.774;2023-07-13T01:54:38;5.27;;;1.90;;
12356;SDS011;6243;51.244;6.774;2023-07-13T01:57:05;6.40;;;1.80;;
12356;SDS011;6243;51.244;6.774;2023-07-13T01:59:31;7.70;;;2.13;;
12356;SDS011;6243;51.244;6.774;2023-07-13T02:01:56;5.20;;;1.73;;
12356;SDS011;6243;51.244;6.774;2023-07-13T02:04:22;4.23;;;1.60;;
12356;SDS011;6243;51.244;6.774;2023-07-13T02:06:47;3.90;;;1.80;;
12356;SDS011;6243;51.244;6.774;2023-07-13T02:09:13;5.83;;;1.77;;
12356;SDS011;6243;51.244;6.774;2023-07-13T02:11:38;7.50;;;1.93;;
12356;SDS011;6243;51.244;6.774;2023-07-13T02:14:05;4.37;;;1.70;;
12356;SDS011;6243;51.244;6.774;2023-07-13T02:16:31;5.70;;;1.73;;
12356;SDS011;6243;51.244;6.774;2023-07-13T02:18:56;2.93;;;1.60;;
12356;SDS011;6243;51.244;6.774;2023-07-13T02:21:22;3.00;;;1.60;;
12356;SDS011;6243;51.244;6.774;2023-07-13T02:23:48;3.97;;;1.63;;
12356;SDS011;6243;51.244;6.774;2023-07-13T02:26:14;3.50;;;1.47;;
12356;SDS011;6243;51.244;6.774;2023-07-13T02:28:40;4.40;;;1.93;;
12356;SDS011;6243;51.244;6.774;2023-07-13T02:31:08;8.57;;;1.70;;
12356;SDS011;6243;51.244;6.774;2023-07-13T02:33:34;3.37;;;1.50;;
12356;SDS011;6243;51.244;6.774;2023-07-13T02:36:00;5.07;;;1.60;;
12356;SDS011;6243;51.244;6.774;2023-07-13T02:38:25;3.80;;;1.77;;
12356;SDS011;6243;51.244;6.774;2023-07-13T02:40:51;3.80;;;1.60;;
12356;SDS011;6243;51.244;6.774;2023-07-13T02:43:16;5.30;;;1.70;;
12356;SDS011;6243;51.244;6.774;2023-07-13T02:45:43;4.23;;;1.40;;
12356;SDS011;6243;51.244;6.774;2023-07-13T02:48:10;2.80;;;1.60;;
12356;SDS011;6243;51.244;6.774;2023-07-13T02:50:35;3.87;;;1.60;;
12356;SDS011;6243;51.244;6.774;2023-07-13T02:53:01;4.77;;;1.57;;
12356;SDS011;6243;51.244;6.774;2023-07-13T02:55:26;5.10;;;1.60;;
12356;SDS011;6243;51.244;6.774;2023-07-13T02:57:52;6.80;;;1.87;;
12356;SDS011;6243;51.244;6.774;2023-07-13T03:00:17;4.23;;;1.67;;
12356;SDS011;6243;51.244;6.774;2023-07-13T03:02:43;4.07;;;2.00;;
12356;SDS011;6243;51.244;6.774;2023-07-13T03:05:10;2.17;;;1.63;;
12356;SDS011;6243;51.244;6.774;2023-07-13T03:07:36;3.73;;;1.70;;
12356;SDS011;6243;51.244;6.774;2023-07-13T03:10:01;5.00;;;1.73;;
12356;SDS011;6243;51.244;6.774;2023-07-13T03:12:27;6.47;;;2.00;;
12356;SDS011;6243;51.244;6.774;2023-07-13T03:14:52;3.97;;;1.60;;
12356;SDS011;6243;51.244;6.774;2023-07-13T03:17:18;5.00;;;1.80;;
12356;SDS011;6243;51.244;6.774;2023-07-13T03:19:43;2.63;;;1.40;;
12356;SDS011;6243;51.244;6.774;2023-07-13T03:22:10;4.77;;;1.60;;
12356;SDS011;6243;51.244;6.774;2023-07-13T03:24:35;5.90;;;2.30;;
12356;SDS011;6243;51.244;6.774;2023-07-13T03:27:01;4.57;;;1.93;;
12356;SDS011;6243;51.244;6.774;2023-07-13T03:29:30;7.07;;;1.83;;
12356;SDS011;6243;51.244;6.774;2023-07-13T03:31:55;4.67;;;2.23;;
12356;SDS011;6243;51.244;6.774;2023-07-13T03:34:21;3.57;;;1.67;;
12356;SDS011;6243;51.244;6.774;2023-07-13T03:36:46;6.87;;;1.90;;
12356;SDS011;6243;51.244;6.774;2023-07-13T03:39:13;3.47;;;1.63;;
12356;SDS011;6243;51.244;6.774;2023-07-13T03:41:39;6.63;;;2.37;;
12356;SDS011;6243;51.244;6.774;2023-07-13T03:44:04;6.87;;;1.93;;
12356;SDS011;6243;51.244;6.774;2023-07-13T03:46:30;5.70;;;2.13;;
12356;SDS011;6243;51.244;6.774;2023-07-13T03:48:56;4.60;;;1.90;;
12356;SDS011;6243;51.244;6.774;2023-07-13T03:51:22;5.17;;;1.70;;
12356;SDS011;6243;51.244;6.774;2023-07-13T03:53:48;4.80;;;1.80;;
12356;SDS011;6243;51.244;6.774;2023-07-13T03:56:15;2.90;;;1.80;;
12356;SDS011;6243;51.244;6.774;2023-07-13T03:58:43;4.83;;;2.17;;
12356;SDS011;6243;51.244;6.774;2023-07-13T04:01:10;5.60;;;2.13;;
12356;SDS011;6243;51.244;6.774;2023-07-13T04:03:36;5.53;;;1.90;;
12356;SDS011;6243;51.244;6.774;2023-07-13T04:06:02;5.60;;;2.00;;
12356;SDS011;6243;51.244;6.774;2023-07-13T04:08:32;6.00;;;1.80;;
12356;SDS011;6243;51.244;6.774;2023-07-13T04:10:59;4.57;;;1.57;;
12356;SDS011;6243;51.244;6.774;2023-07-13T04:13:27;6.73;;;1.87;;
12356;SDS011;6243;51.244;6.774;2023-07-13T04:15:53;6.00;;;2.10;;
12356;SDS011;6243;51.244;6.774;2023-07-13T04:18:19;4.23;;;2.10;;
12356;SDS011;6243;51.244;6.774;2023-07-13T04:20:45;4.47;;;1.90;;
12356;SDS011;6243;51.244;6.774;2023-07-13T04:23:10;6.87;;;2.13;;
12356;SDS011;6243;51.244;6.774;2023-07-13T04:25:36;8.37;;;2.30;;
12356;SDS011;6243;51.244;6.774;2023-07-13T04:28:02;5.03;;;1.83;;
12356;SDS011;6243;51.244;6.774;2023-07-13T04:30:30;6.50;;;2.00;;
12356;SDS011;6243;51.244;6.774;2023-07-13T04:32:55;5.20;;;2.17;;
12356;SDS011;6243;51.244;6.774;2023-07-13T04:35:21;5.37;;;2.00;;
12356;SDS011;6243;51.244;6.774;2023-07-13T04:37:47;4.47;;;2.07;;
12356;SDS011;6243;51.244;6.774;2023-07-13T04:40:12;6.87;;;2.27;;
12356;SDS011;6243;51.244;6.774;2023-07-13T04:42:38;3.37;;;2.30;;
12356;SDS011;6243;51.244;6.774;2023-07-13T04:45:04;6.83;;;2.10;;
12356;SDS011;6243;51.244;6.774;2023-07-13T04:47:32;6.47;;;2.70;;
12356;SDS011;6243;51.244;6.774;2023-07-13T04:49:57;5.10;;;1.87;;
12356;SDS011;6243;51.244;6.774;2023-07-13T04:52:23;3.77;;;1.97;;
12356;SDS011;6243;51.244;6.774;2023-07-13T04:54:49;4.87;;;1.70;;
12356;SDS011;6243;51.244;6.774;2023-07-13T04:57:14;4.83;;;1.87;;
12356;SDS011;6243;51.244;6.774;2023-07-13T04:59:40;9.27;;;2.50;;
12356;SDS011;6243;51.244;6.774;2023-07-13T05:02:06;2.50;;;2.00;;
12356;SDS011;6243;51.244;6.774;2023-07-13T05:04:33;5.67;;;2.40;;
12356;SDS011;6243;51.244;6.774;2023-07-13T05:06:58;6.27;;;2.17;;
12356;SDS011;6243;51.244;6.774;2023-07-13T05:09:24;7.73;;;2.37;;
12356;SDS011;6243;51.244;6.774;2023-07-13T05:11:50;5.80;;;2.50;;
12356;SDS011;6243;51.244;6.774;2023-07-13T05:14:15;7.67;;;2.47;;
12356;SDS011;6243;51.244;6.774;2023-07-13T05:16:41;5.53;;;1.80;;
12356;SDS011;6243;51.244;6.774;2023-07-13T05:19:07;4.60;;;2.00;;
12356;SDS011;6243;51.244;6.774;2023-07-13T05:21:34;5.73;;;2.20;;
12356;SDS011;6243;51.244;6.774;2023-07-13T05:24:00;5.07;;;2.13;;
12356;SDS011;6243;51.244;6.774;2023-07-13T05:26:26;4.47;;;2.00;;
12356;SDS011;6243;51.244;6.774;2023-07-13T05:28:51;4.70;;;2.00;;
12356;SDS011;6243;51.244;6.774;2023-07-13T05:31:17;3.63;;;2.43;;
12356;SDS011;6243;51.244;6.774;2023-07-13T05:33:42;2.90;;;1.80;;
12356;SDS011;6243;51.244;6.774;2023-07-13T05:36:07;5.90;;;2.07;;
12356;SDS011;6243;51.244;6.774;2023-07-13T05:38:35;4.17;;;1.90;;
12356;SDS011;6243;51.244;6.774;2023-07-13T05:41:00;2.70;;;2.10;;
12356;SDS011;6243;51.244;6.774;2023-07-13T05:43:26;3.73;;;2.07;;
12356;SDS011;6243;51.244;6.774;2023-07-13T05:45:52;5.53;;;2.30;;
12356;SDS011;6243;51.244;6.774;2023-07-13T05:48:19;6.30;;;2.67;;
12356;SDS011;6243;51.244;6.774;2023-07-13T05:50:44;7.90;;;2.53;;
12356;SDS011;6243;51.244;6.774;2023-07-13T05:53:11;3.60;;;1.87;;
12356;SDS011;6243;51.244;6.774;2023-07-13T05:55:41;5.77;;;2.30;;
12356;SDS011;6243;51.244;6.774;2023-07-13T05:58:07;5.87;;;2.53;;
12356;SDS011;6243;51.244;6.774;2023-07-13T06:00:33;4.20;;;2.10;;
12356;SDS011;6243;51.244;6.774;2023-07-13T06:02:58;8.27;;;2.67;;
12356;SDS011;6243;51.244;6.774;2023-07-13T06:05:24;7.10;;;2.40;;
12356;SDS011;6243;51.244;6.774;2023-07-13T06:07:49;4.70;;;2.47;;
12356;SDS011;6243;51.244;6.774;2023-07-13T06:10:15;4.47;;;2.10;;
12356;SDS011;6243;51.244;6.774;2023-07-13T06:12:42;4.83;;;2.30;;
12356;SDS011;6243;51.244;6.774;2023-07-13T06:15:07;3.40;;;1.73;;
12356;SDS011;6243;51.244;6.774;2023-07-13T06:17:33;5.30;;;2.20;;
12356;SDS011;6243;51.244;6.774;2023-07-13T06:19:59;5.00;;;2.43;;
12356;SDS011;6243;51.244;6.774;2023-07-13T06:22:24;4.00;;;2.30;;
12356;SDS011;6243;51.244;6.774;2023-07-13T06:24:50;7.53;;;2.70;;
12356;SDS011;6243;51.244;6.774;2023-07-13T06:27:15;7.43;;;2.80;;
12356;SDS011;6243;51.244;6.774;2023-07-13T06:29:42;6.07;;;3.13;;
12356;SDS011;6243;51.244;6.774;2023-07-13T06:32:08;6.87;;;2.53;;
12356;SDS011;6243;51.244;6.774;2023-07-13T06:34:34;5.93;;;2.50;;
12356;SDS011;6243;51.244;6.774;2023-07-13T06:37:00;5.07;;;2.47;;
12356;SDS011;6243;51.244;6.774;2023-07-13T06:39:26;6.37;;;2.63;;
12356;SDS011;6243;51.244;6.774;2023-07-13T06:41:51;7.40;;;3.17;;
12356;SDS011;6243;51.244;6.774;2023-07-13T06:44:17;6.90;;;2.60;;
12356;SDS011;6243;51.244;6.774;2023-07-13T06:46:43;6.50;;;2.80;;
12356;SDS011;6243;51.244;6.774;2023-07-13T06:49:09;8.57;;;3.50;;
12356;SDS011;6243;51.244;6.774;2023-07-13T06:51:35;6.87;;;2.97;;
12356;SDS011;6243;51.244;6.774;2023-07-13T06:54:00;6.43;;;2.60;;
12356;SDS011;6243;51.244;6.774;2023-07-13T06:56:26;7.40;;;3.10;;
12356;SDS011;6243;51.244;6.774;2023-07-13T06:58:51;5.93;;;3.10;;
12356;SDS011;6243;51.244;6.774;2023-07-13T07:01:17;7.17;;;2.80;;
12356;SDS011;6243;51.244;6.774;2023-07-13T07:03:44;5.70;;;2.50;;
12356;SDS011;6243;51.244;6.774;2023-07-13T07:06:12;8.50;;;2.83;;
12356;SDS011;6243;51.244;6.774;2023-07-13T07:08:39;6.90;;;2.93;;
12356;SDS011;6243;51.244;6.774;2023-07-13T07:11:05;5.60;;;2.70;;
12356;SDS011;6243;51.244;6.774;2023-07-13T07:13:33;4.80;;;2.60;;
12356;SDS011;6243;51.244;6.774;2023-07-13T07:15:58;6.77;;;2.70;;
12356;SDS011;6243;51.244;6.774;2023-07-13T07:18:24;4.93;;;2.60;;
12356;SDS011;6243;51.244;6.774;2023-07-13T07:20:51;8.30;;;2.77;;
12356;SDS011;6243;51.244;6.774;2023-07-13T07:23:17;9.33;;;2.73;;
12356;SDS011;6243;51.244;6.774;2023-07-13T07:25:43;9.30;;;2.70;;
12356;SDS011;6243;51.244;6.774;2023-07-13T07:28:08;3.63;;;2.40;;
12356;SDS011;6243;51.244;6.774;2023-07-13T07:30:34;5.10;;;2.40;;
12356;SDS011;6243;51.244;6.774;2023-07-13T07:32:59;6.67;;;2.93;;
12356;SDS011;6243;51.244;6.774;2023-07-13T07:35:25;8.37;;;3.27;;
12356;SDS011;6243;51.244;6.774;2023-07-13T07:37:52;5.30;;;2.53;;
12356;SDS011;6243;51.244;6.774;2023-07-13T07:40:17;6.17;;;2.60;;
12356;SDS011;6243;51.244;6.774;2023-07-13T07:42:43;6.67;;;2.90;;
12356;SDS011;6243;51.244;6.774;2023-07-13T07:45:09;5.77;;;2.83;;
12356;SDS011;6243;51.244;6.774;2023-07-13T07:47:35;5.77;;;2.87;;
12356;SDS011;6243;51.244;6.774;2023-07-13T07:50:00;7.70;;;2.80;;
12356;SDS011;6243;51.244;6.774;2023-07-13T07:52:26;6.27;;;2.87;;
12356;SDS011;6243;51.244;6.774;2023-07-13T07:54:53;3.47;;;2.90;;
12356;SDS011;6243;51.244;6.774;2023-07-13T07:57:19;6.60;;;2.70;;
12356;SDS011;6243;51.244;6.774;2023-07-13T07:59:44;5.57;;;2.47;;
12356;SDS011;6243;51.244;6.774;2023-07-13T08:02:10;5.73;;;2.67;;
12356;SDS011;6243;51.244;6.774;2023-07-13T08:04:36;6.53;;;2.97;;
12356;SDS011;6243;51.244;6.774;2023-07-13T08:07:01;4.67;;;2.70;;
12356;SDS011;6243;51.244;6.774;2023-07-13T08:09:27;5.47;;;2.60;;
12356;SDS011;6243;51.244;6.774;2023-07-13T08:11:54;5.10;;;3.00;;
12356;SDS011;6243;51.244;6.774;2023-07-13T08:14:19;7.87;;;2.97;;
12356;SDS011;6243;51.244;6.774;2023-07-13T08:16:45;8.47;;;3.00;;
12356;SDS011;6243;51.244;6.774;2023-07-13T08:19:11;3.80;;;2.73;;
12356;SDS011;6243;51.244;6.774;2023-07-13T08:21:37;7.90;;;2.90;;
12356;SDS011;6243;51.244;6.774;2023-07-13T08:24:02;5.90;;;2.50;;
12356;SDS011;6243;51.244;6.774;2023-07-13T08:26:28;9.20;;;3.00;;
12356;SDS011;6243;51.244;6.774;2023-07-13T08:28:55;5.50;;;2.57;;
12356;SDS011;6243;51.244;6.774;2023-07-13T08:31:21;7.30;;;2.83;;
12356;SDS011;6243;51.244;6.774;2023-07-13T08:33:47;6.30;;;2.60;;
12356;SDS011;6243;51.244;6.774;2023-07-13T08:36:12;5.43;;;2.70;;
12356;SDS011;6243;51.244;6.774;2023-07-13T08:38:38;5.23;;;2.50;;
12356;SDS011;6243;51.244;6.774;2023-07-13T08:41:09;5.63;;;2.50;;
12356;SDS011;6243;51.244;6.774;2023-07-13T08:43:37;8.37;;;3.00;;
12356;SDS011;6243;51.244;6.774;2023-07-13T08:46:05;6.97;;;2.80;;
12356;SDS011;6243;51.244;6.774;2023-07-13T08:48:37;6.83;;;3.13;;
12356;SDS011;6243;51.244;6.774;2023-07-13T08:51:09;6.23;;;2.93;;
12356;SDS011;6243;51.244;6.774;2023-07-13T08:53:52;8.10;;;3.00;;
12356;SDS011;6243;51.244;6.774;2023-07-13T08:56:23;8.30;;;3.33;;
12356;SDS011;6243;51.244;6.774;2023-07-13T08:58:51;6.77;;;2.90;;
12356;SDS011;6243;51.244;6.774;2023-07-13T09:01:23;9.30;;;3.13;;
12356;SDS011;6243;51.244;6.774;2023-07-13T09:03:55;8.17;;;3.33;;
12356;SDS011;6243;51.244;6.774;2023-07-13T09:06:31;7.80;;;3.63;;
12356;SDS011;6243;51.244;6.774;2023-07-13T09:09:08;4.83;;;2.60;;
12356;SDS011;6243;51.244;6.774;2023-07-13T09:11:46;6.97;;;3.20;;
12356;SDS011;6243;51.244;6.774;2023-07-13T09:14:31;5.80;;;2.97;;
12356;SDS011;6243;51.244;6.774;2023-07-13T09:17:04;7.23;;;2.80;;
12356;SDS011;6243;51.244;6.774;2023-07-13T09:19:35;8.53;;;2.67;;
12356;SDS011;6243;51.244;6.774;2023-07-13T09:22:02;6.30;;;2.43;;
12356;SDS011;6243;51.244;6.774;2023-07-13T09:24:35;8.00;;;3.10;;
12356;SDS011;6243;51.244;6.774;2023-07-13T09:27:03;7.60;;;2.80;;
12356;SDS011;6243;51.244;6.774;2023-07-13T09:29:38;5.30;;;2.43;;
12356;SDS011;6243;51.244;6.774;2023-07-13T09:32:12;5.73;;;2.77;;
12356;SDS011;6243;51.244;6.774;2023-07-13T09:34:42;4.20;;;2.20;;
12356;SDS011;6243;51.244;6.774;2023-07-13T09:37:07;5.83;;;2.63;;
12356;SDS011;6243;51.244;6.774;2023-07-13T09:39:35;4.47;;;2.73;;
12356;SDS011;6243;51.244;6.774;2023-07-13T09:42:06;4.60;;;2.30;;
12356;SDS011;6243;51.244;6.774;2023-07-13T09:44:50;6.70;;;2.80;;
12356;SDS011;6243;51.244;6.774;2023-07-13T09:47:19;7.20;;;2.77;;
12356;SDS011;6243;51.244;6.774;2023-07-13T09:49:46;5.30;;;2.53;;
12356;SDS011;6243;51.244;6.774;2023-07-13T09:52:12;4.90;;;2.30;;
12356;SDS011;6243;51.244;6.774;2023-07-13T09:54:43;4.63;;;2.27;;
12356;SDS011;6243;51.244;6.774;2023-07-13T09:57:11;7.47;;;2.43;;
12356;SDS011;6243;51.244;6.774;2023-07-13T09:59:39;4.43;;;2.40;;
12356;SDS011;6243;51.244;6.774;2023-07-13T10:05:07;3.87;;;2.03;;
12356;SDS011;6243;51.244;6.774;2023-07-13T10:07:39;6.23;;;2.10;;
12356;SDS011;6243;51.244;6.774;2023-07-13T10:10:13;4.87;;;2.30;;
12356;SDS011;6243;51.244;6.774;2023-07-13T10:12:40;4.80;;;2.23;;
12356;SDS011;6243;51.244;6.774;2023-07-13T10:15:07;4.30;;;1.90;;
12356;SDS011;6243;51.244;6.774;2023-07-13T10:17:41;4.73;;;2.37;;
12356;SDS011;6243;51.244;6.774;2023-07-13T10:20:08;6.37;;;2.30;;
12356;SDS011;6243;51.244;6.774;2023-07-13T10:22:36;7.90;;;2.60;;
12356;SDS011;6243;51.244;6.774;2023-07-13T10:25:15;5.83;;;2.57;;
12356;SDS011;6243;51.244;6.774;2023-07-13T10:27:43;3.73;;;2.23;;
12356;SDS011;6243;51.244;6.774;2023-07-13T10:30:11;4.60;;;2.20;;
12356;SDS011;6243;51.244;6.774;2023-07-13T10:32:40;5.10;;;1.97;;
12356;SDS011;6243;51.244;6.774;2023-07-13T10:35:10;3.87;;;2.10;;
12356;SDS011;6243;51.244;6.774;2023-07-13T10:37:40;3.63;;;2.40;;
12356;SDS011;6243;51.244;6.774;2023-07-13T10:40:12;3.20;;;2.30;;
12356;SDS011;6243;51.244;6.774;2023-07-13T10:42:39;2.23;;;2.00;;
12356;SDS011;6243;51.244;6.774;2023-07-13T10:45:12;3.70;;;2.20;;
12356;SDS011;6243;51.244;6.774;2023-07-13T10:47:39;2.93;;;1.73;;
12356;SDS011;6243;51.244;6.774;2023-07-13T10:50:07;7.07;;;2.40;;
12356;SDS011;6243;51.244;6.774;2023-07-13T10:52:41;5.97;;;2.00;;
12356;SDS011;6243;51.244;6.774;2023-07-13T10:58:00;5.17;;;2.10;;
12356;SDS011;6243;51.244;6.774;2023-07-13T11:00:26;6.07;;;2.23;;
12356;SDS011;6243;51.244;6.774;2023-07-13T11:02:57;4.40;;;2.07;;
12356;SDS011;6243;51.244;6.774;2023-07-13T11:05:28;2.70;;;1.80;;
12356;SDS011;6243;51.244;6.774;2023-07-13T11:07:56;4.93;;;2.20;;
12356;SDS011;6243;51.244;6.774;2023-07-13T11:16:01;4.20;;;2.10;;
12356;SDS011;6243;51.244;6.774;2023-07-13T11:18:40;3.73;;;2.00;;
12356;SDS011;6243;51.244;6.774;2023-07-13T11:21:15;2.63;;;1.83;;
12356;SDS011;6243;51.244;6.774;2023-07-13T11:23:42;5.10;;;2.27;;
12356;SDS011;6243;51.244;6.774;2023-07-13T11:29:08;4.17;;;2.03;;
12356;SDS011;6243;51.244;6.774;2023-07-13T11:31:34;5.40;;;1.90;;
12356;SDS011;6243;51.244;6.774;2023-07-13T11:34:00;4.13;;;2.23;;
12356;SDS011;6243;51.244;6.774;2023-07-13T11:36:30;4.03;;;2.00;;
12356;SDS011;6243;51.244;6.774;2023-07-13T11:39:02;4.00;;;2.10;;
12356;SDS011;6243;51.244;6.774;2023-07-13T11:41:31;7.03;;;2.40;;
12356;SDS011;6243;51.244;6.774;2023-07-13T11:44:07;5.33;;;2.00;;
12356;SDS011;6243;51.244;6.774;2023-07-13T11:46:37;3.93;;;1.70;;
12356;SDS011;6243;51.244;6.774;2023-07-13T11:49:04;2.50;;;1.67;;
12356;SDS011;6243;51.244;6.774;2023-07-13T11:51:32;3.00;;;1.83;;
12356;SDS011;6243;51.244;6.774;2023-07-13T11:54:00;2.20;;;1.70;;
12356;SDS011;6243;51.244;6.774;2023-07-13T11:56:27;3.43;;;1.80;;
12356;SDS011;6243;51.244;6.774;2023-07-13T11:58:54;2.17;;;1.70;;
12356;SDS011;6243;51.244;6.774;2023-07-13T12:01:23;4.77;;;1.70;;
12356;SDS011;6243;51.244;6.774;2023-07-13T12:03:51;4.83;;;2.03;;
12356;SDS011;6243;51.244;6.774;2023-07-13T12:06:25;2.57;;;1.80;;
12356;SDS011;6243;51.244;6.774;2023-07-13T12:08:56;2.93;;;1.57;;
12356;SDS011;6243;51.244;6.774;2023-07-13T12:11:22;3.73;;;1.53;;
12356;SDS011;6243;51.244;6.774;2023-07-13T12:13:48;2.60;;;1.80;;
12356;SDS011;6243;51.244;6.774;2023-07-13T12:16:15;3.83;;;1.77;;
12356;SDS011;6243;51.244;6.774;2023-07-13T12:18:42;3.40;;;1.80;;
12356;SDS011;6243;51.244;6.774;2023-07-13T12:21:09;4.97;;;2.00;;
12356;SDS011;6243;51.244;6.774;2023-07-13T12:23:38;5.00;;;1.90;;
12356;SDS011;6243;51.244;6.774;2023-07-13T12:26:05;4.17;;;1.80;;
12356;SDS011;6243;51.244;6.774;2023-07-13T12:28:32;3.33;;;1.60;;
12356;SDS011;6243;51.244;6.774;2023-07-13T12:30:59;3.60;;;1.87;;
12356;SDS011;6243;51.244;6.774;2023-07-13T12:33:27;3.43;;;1.70;;
12356;SDS011;6243;51.244;6.774;2023-07-13T12:35:54;2.93;;;1.63;;
12356;SDS011;6243;51.244;6.774;2023-07-13T12:38:20;3.80;;;1.50;;
12356;SDS011;6243;51.244;6.774;2023-07-13T12:40:48;3.07;;;1.67;;
12356;SDS011;6243;51.244;6.774;2023-07-13T12:43:16;2.20;;;1.50;;
12356;SDS011;6243;51.244;6.774;2023-07-13T12:45:54;2.37;;;1.47;;
12356;SDS011;6243;51.244;6.774;2023-07-13T12:48:21;2.97;;;1.83;;
12356;SDS011;6243;51.244;6.774;2023-07-13T12:50:47;2.43;;;1.97;;
12356;SDS011;6243;51.244;6.774;2023-07-13T12:53:15;6.07;;;1.63;;
12356;SDS011;6243;51.244;6.774;2023-07-13T12:55:44;4.00;;;1.97;;
12356;SDS011;6243;51.244;6.774;2023-07-13T12:58:13;2.63;;;1.60;;
12356;SDS011;6243;51.244;6.774;2023-07-13T13:00:49;3.63;;;1.67;;
12356;SDS011;6243;51.244;6.774;2023-07-13T13:03:17;4.03;;;1.80;;
12356;SDS011;6243;51.244;6.774;2023-07-13T13:05:49;2.20;;;1.77;;
12356;SDS011;6243;51.244;6.774;2023-07-13T13:08:14;3.03;;;1.70;;
12356;SDS011;6243;51.244;6.774;2023-07-13T13:10:40;3.93;;;1.70;;
12356;SDS011;6243;51.244;6.774;2023-07-13T13:13:05;2.00;;;1.77;;
12356;SDS011;6243;51.244;6.774;2023-07-13T13:15:32;5.23;;;1.67;;
12356;SDS011;6243;51.244;6.774;2023-07-13T13:17:58;2.57;;;1.47;;
12356;SDS011;6243;51.244;6.774;2023-07-13T13:20:23;3.40;;;1.73;;
12356;SDS011;6243;51.244;6.774;2023-07-13T13:22:49;4.10;;;1.77;;
12356;SDS011;6243;51.244;6.774;2023-07-13T13:25:15;4.47;;;1.80;;
12356;SDS011;6243;51.244;6.774;2023-07-13T13:27:41;2.77;;;1.57;;
12356;SDS011;6243;51.244;6.774;2023-07-13T13:30:10;2.57;;;1.63;;
12356;SDS011;6243;51.244;6.774;2023-07-13T13:32:38;4.83;;;1.87;;
12356;SDS011;6243;51.244;6.774;2023-07-13T13:35:04;3.17;;;1.60;;
12356;SDS011;6243;51.244;6.774;2023-07-13T13:37:30;3.27;;;1.40;;
12356;SDS011;6243;51.244;6.774;2023-07-13T13:39:56;3.83;;;1.77;;
12356;SDS011;6243;51.244;6.774;2023-07-13T13:42:21;2.50;;;1.67;;
12356;SDS011;6243;51.244;6.774;2023-07-13T13:44:47;2.70;;;1.53;;
12356;SDS011;6243;51.244;6.774;2023-07-13T13:47:17;3.77;;;1.47;;
12356;SDS011;6243;51.244;6.774;2023-07-13T13:49:54;2.83;;;1.50;;
12356;SDS011;6243;51.244;6.774;2023-07-13T13:52:20;3.10;;;1.80;;
12356;SDS011;6243;51.244;6.774;2023-07-13T13:54:45;1.80;;;1.30;;
12356;SDS011;6243;51.244;6.774;2023-07-13T13:57:10;1.80;;;1.53;;
12356;SDS011;6243;51.244;6.774;2023-07-13T13:59:36;3.00;;;1.63;;
12356;SDS011;6243;51.244;6.774;2023-07-13T14:02:01;1.53;;;1.33;;
12356;SDS011;6243;51.244;6.774;2023-07-13T14:04:36;3.27;;;1.57;;
12356;SDS011;6243;51.244;6.774;2023-07-13T14:07:03;2.83;;;1.53;;
12356;SDS011;6243;51.244;6.774;2023-07-13T14:09:29;2.83;;;1.50;;
12356;SDS011;6243;51.244;6.774;2023-07-13T14:11:54;2.53;;;1.70;;
12356;SDS011;6243;51.244;6.774;2023-07-13T14:14:20;2.73;;;1.60;;
12356;SDS011;6243;51.244;6.774;2023-07-13T14:16:47;4.83;;;2.00;;
12356;SDS011;6243;51.244;6.774;2023-07-13T14:19:15;4.83;;;2.00;;
12356;SDS011;6243;51.244;6.774;2023-07-13T14:21:41;3.97;;;1.70;;
12356;SDS011;6243;51.244;6.774;2023-07-13T14:24:08;2.73;;;1.90;;
12356;SDS011;6243;51.244;6.774;2023-07-13T14:26:35;2.97;;;1.37;;
12356;SDS011;6243;51.244;6.774;2023-07-13T14:29:04;2.73;;;1.50;;
12356;SDS011;6243;51.244;6.774;2023-07-13T14:31:36;3.17;;;1.67;;
12356;SDS011;6243;51.244;6.774;2023-07-13T14:34:02;4.53;;;1.83;;
12356;SDS011;6243;51.244;6.774;2023-07-13T14:36:28;2.17;;;1.70;;
12356;SDS011;6243;51.244;6.774;2023-07-13T14:38:56;3.40;;;1.70;;
12356;SDS011;6243;51.244;6.774;2023-07-13T14:41:24;2.47;;;1.60;;
12356;SDS011;6243;51.244;6.774;2023-07-13T14:43:49;4.37;;;1.70;;
12356;SDS011;6243;51.244;6.774;2023-07-13T14:46:18;2.63;;;1.67;;
12356;SDS011;6243;51.244;6.774;2023-07-13T14:48:54;4.00;;;1.80;;
12356;SDS011;6243;51.244;6.774;2023-07-13T14:51:26;3.40;;;1.70;;
12356;SDS011;6243;51.244;6.774;2023-07-13T14:53:52;5.30;;;1.80;;
12356;SDS011;6243;51.244;6.774;2023-07-13T14:56:17;3.33;;;1.97;;
12356;SDS011;6243;51.244;6.774;2023-07-13T14:58:44;3.63;;;1.60;;
12356;SDS011;6243;51.244;6.774;2023-07-13T15:01:11;2.67;;;1.53;;
12356;SDS011;6243;51.244;6.774;2023-07-13T15:03:38;3.23;;;1.70;;
12356;SDS011;6243;51.244;6.774;2023-07-13T15:06:08;2.83;;;1.90;;
12356;SDS011;6243;51.244;6.774;2023-07-13T15:08:35;2.67;;;1.70;;
12356;SDS011;6243;51.244;6.774;2023-07-13T15:11:01;4.13;;;1.80;;
12356;SDS011;6243;51.244;6.774;2023-07-13T15:13:26;3.00;;;1.23;;
12356;SDS011;6243;51.244;6.774;2023-07-13T15:15:53;3.43;;;1.70;;
12356;SDS011;6243;51.244;6.774;2023-07-13T15:18:19;2.93;;;1.60;;